Aérodrome :
LOGIN :

S'inscrire | Disclaimer

   EN    FR    IT 

 










Légende :    VFR   VFR Marginal   IFR   IFR Intensif   IFR Très Intensif
Visi : 
Plafond : 
>= 8 km
>= 3000ft
5 à 8 km
1000 à 3000 ft
1500m à 5 km
500 à 1000 ft
800 à 1500m
200 à 500 ft
< 800m
< 200 ft
Symboles :   Orages  Brouillard  Fortes neiges  Fortes précipitations  Vent > 20 kt
SIGMETs :   Divers  Orages  Givrage  Turbulence  Onde Orograph.  Cendres Volcan.






- Altitude de l'aérodrome : 119 ft
- Code IATA : WAT


EIWF - Waterford

DERNIER METAR :
  • 071200Z 19012KT 160V230 CAVOK 12/06 Q1027

METARs EXPIRÉS :
  • 071130Z 19011KT 160V230 CAVOK 11/06 Q1027
  • 071100Z 18013KT CAVOK 11/06 Q1028
  • 071030Z 19013KT CAVOK 11/07 Q1028
  • 071000Z 19010KT 140V220 CAVOK 11/06 Q1028
  • 070930Z 20011KT 160V230 CAVOK 11/08 Q1027

TAF TAF EIWF
Valide du 07 à 12h jusqu'au 07 à 21h UTC


071100Z 0712/0721 18013KT 9999 FEW020
ATIS : +353 51 877 000



MET'MAP, la Météo Aéronautique d'un coup d'oeil ! - Copyright ORBIFLY Décembre 2007 - Disclaimer

ORBIFLY MET'MAP TEAM :

Programmation & Développement : Alexandra Zaïnal
Sur une idée originale de : Baudouin d'Aumeries
Assistance à la programmation : Marc-Olivier Méhu
Soutien technique & logistique : Manuel Goepfert

Contact : metmap@orbifly.com




SOURCES & CREDITS :

   NOAA